Time;durP1;ratioP1;P1;durP2;ratioP2;P2;SDS_P1;SDS_P2;PMS_P1;PMS_P2;Temp;Humidity;BMP_temperature;BMP_pressure;BME280_temperature;BME280_humidity;BME280_pressure;Samples;Min_cycle;Max_cycle;Signal;HPM_P1;HPM_P2
2023/04/05 00:00:01;;;;;;;1315.23;860.17;;;1.40;99.90;;;;;;5070070;28;20197;-52
2023/04/05 00:02:30;;;;;;;877.27;667.07;;;1.50;99.90;;;;;;5069743;28;20304;-51
2023/04/05 00:04:59;;;;;;;955.13;858.80;;;1.40;99.90;;;;;;5070221;28;20219;-51
2023/04/05 00:07:28;;;;;;;840.63;673.70;;;1.40;99.90;;;;;;5069592;28;20228;-51
2023/04/05 00:09:56;;;;;;;728.43;664.53;;;1.40;99.90;;;;;;5069987;28;20225;-51
2023/04/05 00:12:24;;;;;;;722.50;660.80;;;1.40;99.90;;;;;;5069612;28;20217;-51
2023/04/05 00:14:52;;;;;;;369.57;341.83;;;1.30;99.90;;;;;;5069534;28;20299;-52
2023/04/05 00:17:21;;;;;;;548.50;500.40;;;1.30;99.90;;;;;;5069637;28;20324;-51
2023/04/05 00:19:56;;;;;;;731.43;670.63;;;1.30;99.90;;;;;;5063625;28;20680;-51
2023/04/05 00:22:25;;;;;;;510.60;462.57;;;1.20;99.90;;;;;;5069392;28;20896;-51
2023/04/05 00:24:54;;;;;;;820.83;753.07;;;1.20;99.90;;;;;;5069538;28;20207;-51
2023/04/05 00:27:22;;;;;;;578.17;521.20;;;1.20;99.90;;;;;;5055714;28;20251;-51
2023/04/05 00:29:50;;;;;;;628.07;577.50;;;1.20;99.90;;;;;;5069693;28;20260;-51
2023/04/05 00:32:18;;;;;;;483.77;439.60;;;1.20;99.90;;;;;;5069467;28;20292;-52
2023/04/05 00:34:46;;;;;;;738.90;675.67;;;1.10;99.90;;;;;;5069399;28;20678;-51
2023/04/05 00:37:14;;;;;;;793.20;726.87;;;1.10;99.90;;;;;;5069041;28;20311;-51
2023/04/05 00:39:42;;;;;;;724.20;663.50;;;1.10;99.90;;;;;;5069611;28;20283;-51
2023/04/05 00:42:11;;;;;;;565.20;517.23;;;1.10;99.90;;;;;;5068333;28;20773;-51
2023/04/05 00:44:39;;;;;;;323.37;296.00;;;1.00;99.90;;;;;;5069143;28;20212;-51
2023/04/05 00:47:07;;;;;;;771.43;707.30;;;1.00;99.90;;;;;;5068947;28;20366;-52
2023/04/05 00:49:36;;;;;;;925.50;763.37;;;1.00;99.90;;;;;;5069122;28;20219;-51
2023/04/05 00:52:04;;;;;;;713.07;636.63;;;1.00;99.90;;;;;;5069016;28;20205;-51
2023/04/05 00:54:33;;;;;;;816.57;741.20;;;0.90;99.90;;;;;;5068685;28;20235;-52
2023/04/05 00:57:02;;;;;;;816.80;734.40;;;0.90;99.90;;;;;;5068659;28;20279;-51
2023/04/05 00:59:31;;;;;;;847.40;759.20;;;0.80;99.90;;;;;;5069134;28;20295;-51
2023/04/05 01:02:03;;;;;;;778.60;677.50;;;0.80;99.90;;;;;;5069241;28;20206;-51
2023/04/05 01:04:35;;;;;;;1907.90;939.60;;;0.80;99.90;;;;;;5068879;28;20300;-51
2023/04/05 01:07:09;;;;;;;970.33;825.20;;;0.80;99.90;;;;;;5068575;28;20290;-51
2023/04/05 01:09:45;;;;;;;1242.07;839.07;;;0.70;99.90;;;;;;5068189;28;20229;-51
2023/04/05 01:12:19;;;;;;;1129.97;738.67;;;0.60;99.90;;;;;;5068908;28;20215;-51
2023/04/05 01:14:50;;;;;;;1024.50;751.90;;;0.60;99.90;;;;;;5068784;28;20761;-51
2023/04/05 01:17:20;;;;;;;901.07;656.27;;;0.60;99.90;;;;;;5068446;28;20266;-51
2023/04/05 01:19:52;;;;;;;681.33;598.23;;;0.50;99.90;;;;;;5068803;28;20201;-51
2023/04/05 01:22:51;;;;;;;1999.90;827.93;;;0.50;99.90;;;;;;5068857;28;20208;-51
2023/04/05 01:25:46;;;;;;;1478.23;783.13;;;0.50;99.90;;;;;;5068877;28;20228;-51
2023/04/05 01:28:49;;;;;;;1209.97;750.37;;;0.40;99.90;;;;;;5068964;28;20308;-51
2023/04/05 01:31:26;;;;;;;844.27;760.33;;;0.40;99.90;;;;;;5059637;28;20265;-51
2023/04/05 01:33:59;;;;;;;748.77;664.87;;;0.40;99.90;;;;;;5068698;28;20716;-51
2023/04/05 01:36:33;;;;;;;1370.67;578.70;;;0.30;99.90;;;;;;5068843;28;20272;-51
2023/04/05 01:39:04;;;;;;;1999.90;999.90;;;0.30;99.90;;;;;;5068741;28;20291;-51
2023/04/05 01:41:32;;;;;;;804.70;722.27;;;0.30;99.90;;;;;;5068632;28;20291;-51
2023/04/05 01:44:00;;;;;;;923.20;682.40;;;0.30;99.90;;;;;;5068580;28;20662;-51
2023/04/05 01:46:30;;;;;;;791.60;709.03;;;0.20;99.90;;;;;;5068392;28;20211;-51
2023/04/05 01:48:58;;;;;;;1067.70;725.23;;;0.30;99.90;;;;;;5068682;28;20295;-51
2023/04/05 01:51:26;;;;;;;996.17;557.07;;;0.20;99.90;;;;;;5068858;28;20217;-52
2023/04/05 01:53:54;;;;;;;1999.90;999.90;;;0.20;99.90;;;;;;5070886;28;20208;-51
2023/04/05 01:56:22;;;;;;;1674.43;717.07;;;0.20;99.90;;;;;;5072463;28;20666;-51
2023/04/05 01:58:50;;;;;;;958.93;734.00;;;0.20;99.90;;;;;;5072391;28;20288;-51
2023/04/05 02:01:18;;;;;;;793.03;707.83;;;0.20;99.90;;;;;;5072457;28;20218;-50
2023/04/05 02:03:48;;;;;;;1159.70;823.73;;;0.20;99.90;;;;;;5072520;28;20208;-50
2023/04/05 02:06:16;;;;;;;523.57;479.43;;;0.10;99.90;;;;;;5072206;28;20252;-51
2023/04/05 02:08:44;;;;;;;687.37;621.60;;;0.10;99.90;;;;;;5072269;28;21051;-51
2023/04/05 02:11:12;;;;;;;646.60;579.13;;;0.10;99.90;;;;;;5071007;28;20247;-51
2023/04/05 02:13:40;;;;;;;487.33;444.87;;;0.10;99.90;;;;;;5071991;28;20230;-52
2023/04/05 02:16:08;;;;;;;587.73;529.73;;;0.10;99.90;;;;;;5072283;28;20327;-51
2023/04/05 02:18:37;;;;;;;707.60;647.17;;;0.00;99.90;;;;;;5071688;28;20228;-51
2023/04/05 02:21:09;;;;;;;999.57;685.33;;;0.00;99.90;;;;;;5072455;28;20212;-50
2023/04/05 02:23:38;;;;;;;630.40;575.50;;;0.00;99.90;;;;;;5071820;28;20234;-51
2023/04/05 02:26:06;;;;;;;424.40;379.80;;;-0.10;99.90;;;;;;5072009;28;20208;-51
2023/04/05 02:28:34;;;;;;;693.17;625.83;;;-0.10;99.90;;;;;;5071729;28;20235;-51
2023/04/05 02:31:02;;;;;;;562.43;512.00;;;-0.10;99.90;;;;;;5071479;28;20734;-51
2023/04/05 02:33:30;;;;;;;508.43;462.57;;;-0.10;99.90;;;;;;5071611;28;20719;-52
2023/04/05 02:35:58;;;;;;;909.23;806.37;;;-0.10;99.90;;;;;;5071865;28;20302;-51
2023/04/05 02:38:27;;;;;;;502.13;455.07;;;-0.20;99.90;;;;;;5071582;28;20324;-51
2023/04/05 02:40:55;;;;;;;602.47;544.13;;;-0.10;99.90;;;;;;5071211;28;20231;-51
2023/04/05 02:43:23;;;;;;;854.90;727.40;;;-0.20;99.90;;;;;;5071486;28;20711;-51
2023/04/05 02:45:51;;;;;;;736.20;606.73;;;-0.20;99.90;;;;;;5071585;28;20331;-50
2023/04/05 02:48:19;;;;;;;923.90;833.53;;;-0.20;99.90;;;;;;5071421;28;20708;-51
2023/04/05 02:50:48;;;;;;;870.10;707.93;;;-0.20;99.90;;;;;;5071191;28;20310;-51
2023/04/05 02:53:17;;;;;;;899.40;610.07;;;-0.20;99.90;;;;;;5071374;28;20287;-51
2023/04/05 02:55:53;;;;;;;1999.90;999.90;;;-0.30;99.90;;;;;;5071564;28;20239;-51
2023/04/05 02:58:22;;;;;;;1078.53;712.83;;;-0.30;99.90;;;;;;5071423;28;20305;-50
2023/04/05 03:00:51;;;;;;;891.90;700.77;;;-0.30;99.90;;;;;;5071254;28;20209;-51
2023/04/05 03:03:20;;;;;;;936.70;665.33;;;-0.30;99.90;;;;;;5057699;28;20263;-51
2023/04/05 03:05:49;;;;;;;923.40;828.97;;;-0.40;99.90;;;;;;5070497;28;20293;-51
2023/04/05 03:08:18;;;;;;;589.80;536.40;;;-0.40;99.90;;;;;;5071040;28;20232;-51
2023/04/05 03:10:47;;;;;;;737.47;657.73;;;-0.50;99.90;;;;;;5070821;28;20321;-51
2023/04/05 03:13:16;;;;;;;1281.33;793.37;;;-0.50;99.90;;;;;;5070800;28;20331;-52
2023/04/05 03:15:44;;;;;;;1259.00;753.43;;;-0.50;99.90;;;;;;5070923;28;20661;-51
2023/04/05 03:18:12;;;;;;;1999.90;934.53;;;-0.50;99.90;;;;;;5070329;28;20311;-51
2023/04/05 03:20:40;;;;;;;881.87;781.23;;;-0.50;99.90;;;;;;5070974;28;20214;-51
2023/04/05 03:23:08;;;;;;;1045.03;787.10;;;-0.50;99.90;;;;;;5070824;28;20203;-51
2023/04/05 03:25:37;;;;;;;1999.90;938.27;;;-0.50;99.90;;;;;;5070872;28;20205;-52
2023/04/05 03:28:07;;;;;;;1619.80;957.57;;;-0.50;99.90;;;;;;5070993;28;20239;-51
2023/04/05 03:30:36;;;;;;;1999.90;999.90;;;-0.50;99.90;;;;;;5070246;28;20275;-51
2023/04/05 03:33:04;;;;;;;1406.93;729.43;;;-0.50;99.90;;;;;;5070889;28;20225;-52
2023/04/05 03:35:33;;;;;;;1318.43;750.23;;;-0.60;99.90;;;;;;5070313;28;20205;-51
2023/04/05 03:38:01;;;;;;;1999.90;927.67;;;-0.60;99.90;;;;;;5069874;28;20281;-52
2023/04/05 03:40:29;;;;;;;1013.67;766.60;;;-0.60;99.90;;;;;;5070155;28;20291;-51
2023/04/05 03:42:57;;;;;;;1324.23;827.70;;;-0.60;99.90;;;;;;5070400;28;20314;-51
2023/04/05 03:45:25;;;;;;;1187.70;869.50;;;-0.70;99.90;;;;;;5070104;28;20276;-52
2023/04/05 03:47:55;;;;;;;1672.37;884.10;;;-0.70;99.90;;;;;;5070461;28;20349;-52
2023/04/05 03:50:23;;;;;;;1999.90;798.23;;;-0.70;99.90;;;;;;5071474;28;20664;-51
2023/04/05 03:52:51;;;;;;;1999.90;796.67;;;-0.80;99.90;;;;;;5082414;28;20710;-51
2023/04/05 03:55:19;;;;;;;748.67;622.37;;;-0.70;99.90;;;;;;5077862;28;20211;-51
2023/04/05 03:57:48;;;;;;;900.87;692.77;;;-0.70;99.90;;;;;;5075056;28;20305;-51
2023/04/05 04:00:16;;;;;;;776.37;683.77;;;-0.80;99.90;;;;;;5080368;28;20796;-51
2023/04/05 04:02:46;;;;;;;1095.83;845.90;;;-0.80;99.90;;;;;;5072264;28;20250;-51
2023/04/05 04:05:16;;;;;;;1038.27;775.97;;;-0.80;99.90;;;;;;5072660;28;20680;-51
2023/04/05 04:07:46;;;;;;;1292.47;830.50;;;-0.80;99.90;;;;;;5072059;28;20994;-51
2023/04/05 04:10:16;;;;;;;1581.30;948.40;;;-0.80;99.90;;;;;;5074427;28;20206;-51
2023/04/05 04:12:45;;;;;;;849.80;768.33;;;-0.80;99.90;;;;;;5072607;28;20242;-51
2023/04/05 04:15:13;;;;;;;1019.53;771.73;;;-0.80;99.90;;;;;;5069613;28;20224;-51
2023/04/05 04:17:41;;;;;;;1709.63;981.23;;;-0.80;99.90;;;;;;5075652;28;20331;-50
2023/04/05 04:20:10;;;;;;;992.90;848.97;;;-0.80;99.90;;;;;;5070255;28;20686;-51
2023/04/05 04:22:39;;;;;;;786.40;718.03;;;-0.80;99.90;;;;;;5070325;28;20202;-51
2023/04/05 04:25:09;;;;;;;1999.90;994.50;;;-0.90;99.90;;;;;;5075808;28;20688;-50
2023/04/05 04:27:39;;;;;;;888.13;717.57;;;-0.80;99.90;;;;;;5088467;28;20253;-50
2023/04/05 04:30:09;;;;;;;743.50;671.33;;;-0.80;99.90;;;;;;5082978;28;20297;-51
2023/04/05 04:32:50;;;;;;;899.40;808.63;;;-0.80;99.90;;;;;;5070917;28;20203;-51
2023/04/05 04:35:19;;;;;;;941.87;821.67;;;-0.90;99.90;;;;;;5074018;28;20206;-51
2023/04/05 04:37:53;;;;;;;693.33;619.40;;;-0.90;99.90;;;;;;5072868;28;20286;-51
2023/04/05 04:40:21;;;;;;;971.73;801.10;;;-0.90;99.90;;;;;;5077631;28;20887;-51
2023/04/05 04:42:50;;;;;;;903.93;791.90;;;-0.90;99.90;;;;;;5062600;28;20207;-51
2023/04/05 04:45:19;;;;;;;837.63;695.97;;;-0.90;99.90;;;;;;5059475;28;20204;-51
2023/04/05 04:47:52;;;;;;;890.77;805.23;;;-0.90;99.90;;;;;;5066951;28;20237;-51
2023/04/05 04:50:21;;;;;;;1126.77;945.83;;;-0.80;99.90;;;;;;5067498;28;20252;-51
2023/04/05 04:52:50;;;;;;;881.60;791.13;;;-0.80;99.90;;;;;;5067901;28;20284;-51
2023/04/05 04:55:24;;;;;;;689.03;618.60;;;-0.80;99.90;;;;;;5068817;28;20575;-51
2023/04/05 04:57:52;;;;;;;997.53;720.83;;;-0.80;99.90;;;;;;5067524;28;20331;-51
2023/04/05 05:00:22;;;;;;;842.37;755.67;;;-0.70;99.90;;;;;;5079081;28;20227;-51
2023/04/05 05:02:52;;;;;;;1513.20;699.27;;;-0.70;99.90;;;;;;5069864;28;20273;-50
2023/04/05 05:05:21;;;;;;;932.53;727.70;;;-0.60;99.90;;;;;;5070914;28;20214;-51
2023/04/05 05:07:52;;;;;;;594.23;541.10;;;-0.60;99.90;;;;;;5065859;28;20798;-51
2023/04/05 05:10:20;;;;;;;632.57;551.17;;;-0.40;99.90;;;;;;5068246;28;20239;-51
2023/04/05 05:12:48;;;;;;;802.70;730.70;;;-0.40;99.90;;;;;;5067609;28;20223;-50
2023/04/05 05:15:16;;;;;;;797.87;723.10;;;-0.40;99.90;;;;;;5068171;28;20243;-51
2023/04/05 05:17:44;;;;;;;853.73;572.03;;;-0.30;99.90;;;;;;5067327;28;20231;-51
2023/04/05 05:20:12;;;;;;;699.33;633.17;;;-0.30;99.90;;;;;;5068431;28;20735;-51
2023/04/05 05:22:41;;;;;;;803.27;726.63;;;-0.30;99.90;;;;;;5053355;28;20209;-51
2023/04/05 05:25:11;;;;;;;440.90;407.37;;;-0.20;99.90;;;;;;5068164;28;20204;-51
2023/04/05 05:27:39;;;;;;;667.13;604.60;;;-0.10;99.90;;;;;;5068818;28;20225;-52
2023/04/05 05:30:08;;;;;;;691.47;629.30;;;-0.10;99.90;;;;;;5074508;28;20306;-51
2023/04/05 05:32:36;;;;;;;532.43;485.30;;;0.00;99.90;;;;;;5073826;28;20308;-51
2023/04/05 05:35:04;;;;;;;571.00;525.17;;;0.00;99.90;;;;;;5068878;28;20211;-51
2023/04/05 05:37:33;;;;;;;470.03;429.53;;;0.00;99.90;;;;;;5074173;28;20227;-52
2023/04/05 05:40:03;;;;;;;493.57;452.90;;;0.10;99.90;;;;;;5074403;28;20286;-51
2023/04/05 05:42:32;;;;;;;463.40;419.43;;;0.20;99.90;;;;;;5075913;28;20208;-52
2023/04/05 05:45:03;;;;;;;520.90;476.13;;;0.30;99.90;;;;;;5085301;28;20707;-52
2023/04/05 05:47:31;;;;;;;706.50;636.07;;;0.30;99.90;;;;;;5087901;28;20259;-52
2023/04/05 05:49:59;;;;;;;727.60;665.03;;;0.40;99.90;;;;;;5074860;28;20284;-51
2023/04/05 05:52:28;;;;;;;761.03;626.10;;;0.40;99.90;;;;;;5074230;28;20314;-51
2023/04/05 05:54:58;;;;;;;1401.60;628.10;;;0.40;99.90;;;;;;5056324;28;20256;-51
2023/04/05 05:57:26;;;;;;;501.40;457.43;;;0.50;99.90;;;;;;5077270;28;20258;-52
2023/04/05 05:59:56;;;;;;;649.10;589.43;;;0.60;99.90;;;;;;5067364;28;20205;-53
2023/04/05 06:02:25;;;;;;;596.30;546.07;;;0.70;99.90;;;;;;5072050;28;20201;-52
2023/04/05 06:04:53;;;;;;;518.43;478.40;;;0.80;99.90;;;;;;5071941;28;20295;-52
2023/04/05 06:07:22;;;;;;;819.40;745.17;;;0.80;99.90;;;;;;5073223;28;20278;-51
2023/04/05 06:09:50;;;;;;;825.17;723.60;;;0.90;99.90;;;;;;5072518;28;20295;-51
2023/04/05 06:12:18;;;;;;;646.30;591.17;;;1.00;99.90;;;;;;5073970;28;20229;-52
2023/04/05 06:14:45;;;;;;;726.53;662.37;;;1.10;99.90;;;;;;5073650;28;20304;-52
2023/04/05 06:17:15;;;;;;;745.23;676.33;;;1.20;99.90;;;;;;5074336;28;20254;-51
2023/04/05 06:19:43;;;;;;;570.70;518.97;;;1.30;99.90;;;;;;5073674;28;20304;-51
2023/04/05 06:22:11;;;;;;;422.67;387.87;;;1.30;99.90;;;;;;5066501;28;20228;-52
2023/04/05 06:24:39;;;;;;;524.70;483.47;;;1.50;99.90;;;;;;5074068;28;20208;-51
2023/04/05 06:27:08;;;;;;;660.10;596.93;;;1.60;99.90;;;;;;5075940;28;20311;-52
2023/04/05 06:29:36;;;;;;;788.67;713.20;;;1.70;99.90;;;;;;5074106;28;20208;-52
2023/04/05 06:32:04;;;;;;;834.33;759.03;;;1.80;99.90;;;;;;5073798;28;20231;-52
2023/04/05 06:34:33;;;;;;;629.37;571.53;;;1.90;99.90;;;;;;5073555;28;20210;-51
2023/04/05 06:37:01;;;;;;;523.37;476.60;;;1.90;99.90;;;;;;5074271;28;20343;-52
2023/04/05 06:39:30;;;;;;;504.50;456.00;;;2.20;99.90;;;;;;5073026;28;20206;-52
2023/04/05 06:41:58;;;;;;;507.30;461.13;;;2.50;99.90;;;;;;5074306;28;20208;-52
2023/04/05 06:44:26;;;;;;;1360.47;914.40;;;3.40;99.90;;;;;;5070490;28;20205;-52
2023/04/05 06:46:54;;;;;;;1060.27;791.97;;;3.40;99.90;;;;;;5079517;28;20265;-52
2023/04/05 06:49:22;;;;;;;899.07;749.50;;;3.20;99.90;;;;;;5076526;28;20214;-51
2023/04/05 06:51:52;;;;;;;1406.87;995.27;;;3.30;99.90;;;;;;5070445;28;20338;-52
2023/04/05 06:54:22;;;;;;;1999.90;999.90;;;3.70;99.90;;;;;;5069409;28;20205;-52
2023/04/05 06:56:51;;;;;;;1999.90;999.90;;;4.30;99.90;;;;;;5071095;28;20236;-51
2023/04/05 06:59:19;;;;;;;1999.90;999.90;;;4.40;99.90;;;;;;5070625;28;20201;-52
2023/04/05 07:01:47;;;;;;;1999.90;994.70;;;4.90;99.90;;;;;;5062312;28;20236;-51
2023/04/05 07:04:16;;;;;;;1999.90;951.13;;;5.30;99.90;;;;;;5069683;28;20232;-51
2023/04/05 07:06:44;;;;;;;1999.90;982.73;;;5.70;99.90;;;;;;5070229;28;20229;-52
2023/04/05 07:09:14;;;;;;;1999.90;946.73;;;5.90;99.90;;;;;;5070512;28;20736;-52
2023/04/05 07:11:43;;;;;;;1999.90;854.03;;;6.10;99.90;;;;;;5069840;28;20704;-52
2023/04/05 07:14:12;;;;;;;1999.90;938.87;;;6.30;99.90;;;;;;5059524;28;20213;-51
2023/04/05 07:16:40;;;;;;;1999.90;957.57;;;6.60;99.90;;;;;;5067256;28;20205;-52
2023/04/05 07:19:09;;;;;;;1999.90;987.20;;;6.90;99.90;;;;;;5070581;28;20232;-52
2023/04/05 07:21:37;;;;;;;1999.90;969.70;;;7.10;99.90;;;;;;5069072;28;20774;-52
2023/04/05 07:24:07;;;;;;;1999.90;967.17;;;7.10;99.90;;;;;;5065688;28;20196;-52
2023/04/05 07:26:38;;;;;;;1999.90;999.90;;;7.30;99.90;;;;;;5051629;28;20208;-51
2023/04/05 07:29:07;;;;;;;1999.90;999.90;;;7.30;99.90;;;;;;5065464;28;20208;-52
2023/04/05 07:31:36;;;;;;;1999.90;999.90;;;7.50;99.90;;;;;;5064074;28;20212;-51
2023/04/05 07:34:04;;;;;;;1999.90;998.10;;;7.60;99.90;;;;;;5070445;28;20241;-51
2023/04/05 07:36:34;;;;;;;1999.90;999.90;;;7.80;99.90;;;;;;5069458;28;20662;-50
2023/04/05 07:39:04;;;;;;;1999.90;999.90;;;7.90;99.90;;;;;;5070362;28;20296;-52
2023/04/05 07:41:34;;;;;;;1999.90;999.60;;;8.10;99.90;;;;;;5064679;28;20213;-52
2023/04/05 07:44:03;;;;;;;1999.90;999.90;;;8.10;99.90;;;;;;5057539;28;20586;-53
2023/04/05 07:46:31;;;;;;;1999.90;999.90;;;8.40;99.90;;;;;;5066621;28;20948;-52
2023/04/05 07:49:00;;;;;;;1999.90;999.90;;;8.40;99.90;;;;;;5065999;28;20296;-51
2023/04/05 07:51:28;;;;;;;1999.90;999.90;;;8.40;99.90;;;;;;5068896;28;20212;-52
2023/04/05 07:53:57;;;;;;;1999.90;999.90;;;8.60;99.90;;;;;;5061195;28;20229;-52
2023/04/05 07:56:29;;;;;;;1999.90;999.90;;;8.70;99.90;;;;;;5075906;28;20197;-52
2023/04/05 07:58:56;;;;;;;1999.90;999.90;;;8.80;99.90;;;;;;5069512;28;20238;-52
2023/04/05 08:01:27;;;;;;;1999.90;999.90;;;8.80;99.90;;;;;;5065278;28;20291;-53
2023/04/05 08:03:56;;;;;;;1999.90;999.90;;;8.60;99.90;;;;;;5069432;28;20258;-52
2023/04/05 08:06:26;;;;;;;1999.90;999.90;;;8.40;99.90;;;;;;5069000;28;20216;-52
2023/04/05 08:08:54;;;;;;;1999.80;999.90;;;8.10;99.90;;;;;;5063281;28;20205;-52
2023/04/05 08:11:22;;;;;;;1760.33;999.90;;;7.90;99.90;;;;;;5068973;28;20231;-51
2023/04/05 08:13:51;;;;;;;1999.90;999.90;;;7.80;99.90;;;;;;5069418;28;20692;-52
2023/04/05 08:16:19;;;;;;;1580.17;977.10;;;7.70;99.90;;;;;;5073682;28;20577;-52
2023/04/05 08:18:48;;;;;;;1753.33;999.90;;;7.40;99.90;;;;;;5069146;28;20276;-52
2023/04/05 08:21:16;;;;;;;1999.90;999.90;;;7.50;99.90;;;;;;5062115;28;20244;-52
2023/04/05 08:23:44;;;;;;;1999.90;999.90;;;7.60;99.90;;;;;;5060488;28;20320;-52
2023/04/05 08:26:13;;;;;;;1999.90;999.90;;;7.30;99.90;;;;;;5064910;28;20240;-52
2023/04/05 08:28:41;;;;;;;1999.90;999.90;;;7.50;99.90;;;;;;5066273;28;20962;-52
2023/04/05 08:31:09;;;;;;;1999.90;999.90;;;7.60;99.90;;;;;;5068474;28;20295;-52
2023/04/05 08:33:40;;;;;;;1999.90;999.90;;;7.90;99.90;;;;;;5055601;28;20281;-52
2023/04/05 08:36:11;;;;;;;1501.33;952.37;;;8.10;99.90;;;;;;5068851;28;20243;-51
2023/04/05 08:38:39;;;;;;;1999.90;971.23;;;8.00;99.90;;;;;;5064276;28;20225;-51
2023/04/05 08:41:17;;;;;;;1999.90;999.90;;;7.40;99.90;;;;;;5063088;28;20312;-52
2023/04/05 08:43:56;;;;;;;1999.90;999.90;;;7.60;99.90;;;;;;5068173;28;20307;-51
2023/04/05 08:46:27;;;;;;;1867.50;999.90;;;7.80;99.90;;;;;;5068164;28;20258;-52
2023/04/05 08:48:57;;;;;;;1419.30;962.03;;;7.70;99.90;;;;;;5067805;28;20236;-52
2023/04/05 08:51:27;;;;;;;1999.90;999.90;;;7.40;99.90;;;;;;5068613;28;20286;-53
2023/04/05 08:53:55;;;;;;;1246.03;915.13;;;7.70;99.90;;;;;;5067638;28;20321;-51
2023/04/05 08:56:27;;;;;;;1944.37;999.90;;;7.70;99.90;;;;;;5069035;28;20220;-53
2023/04/05 08:59:01;;;;;;;1999.90;999.90;;;7.60;99.90;;;;;;5068078;28;20209;-52
2023/04/05 09:01:31;;;;;;;1933.20;999.90;;;7.70;99.90;;;;;;5067399;28;20200;-52
2023/04/05 09:04:01;;;;;;;1999.90;999.90;;;7.80;99.90;;;;;;5067157;28;20280;-52
2023/04/05 09:06:31;;;;;;;1996.23;999.90;;;7.80;99.90;;;;;;5068386;28;20200;-51
2023/04/05 09:08:59;;;;;;;1519.13;956.10;;;7.90;99.90;;;;;;5067768;28;20237;-52
2023/04/05 09:11:28;;;;;;;1291.63;932.33;;;7.70;99.90;;;;;;5072466;28;20205;-51
2023/04/05 09:13:56;;;;;;;1329.33;959.33;;;7.60;99.90;;;;;;5066847;28;20225;-52
2023/04/05 09:16:25;;;;;;;1681.30;999.90;;;7.50;99.90;;;;;;5068205;28;20209;-52
2023/04/05 09:18:53;;;;;;;1792.43;999.90;;;7.50;99.90;;;;;;5067530;28;20209;-52
2023/04/05 09:21:22;;;;;;;1999.90;999.90;;;7.30;99.90;;;;;;5063340;28;20208;-52
2023/04/05 09:23:55;;;;;;;1999.90;999.90;;;7.30;99.90;;;;;;5067000;28;20227;-51
2023/04/05 09:26:25;;;;;;;1999.90;999.90;;;7.40;99.90;;;;;;5069097;28;20503;-51
2023/04/05 09:28:53;;;;;;;1999.90;999.90;;;7.70;99.90;;;;;;5067417;28;21434;-51
2023/04/05 09:31:31;;;;;;;1999.90;999.90;;;7.50;99.90;;;;;;5069528;28;20688;-52
2023/04/05 09:34:01;;;;;;;1760.97;999.90;;;7.40;99.90;;;;;;5066676;28;20954;-51
2023/04/05 09:36:29;;;;;;;1870.90;999.90;;;7.30;99.90;;;;;;5067361;28;20296;-51
2023/04/05 09:39:09;;;;;;;1876.83;999.90;;;7.30;99.90;;;;;;5066555;28;20343;-51
2023/04/05 09:41:38;;;;;;;1999.90;999.90;;;7.40;99.90;;;;;;5065941;28;20231;-51
2023/04/05 09:44:06;;;;;;;1836.33;999.90;;;7.50;99.90;;;;;;5067098;28;20197;-51
2023/04/05 09:46:36;;;;;;;1999.90;999.90;;;7.50;99.90;;;;;;5067312;28;20331;-51
2023/04/05 09:49:05;;;;;;;1999.90;999.90;;;7.60;99.90;;;;;;5066935;28;20209;-51
2023/04/05 09:51:35;;;;;;;1974.10;999.90;;;7.50;99.90;;;;;;5067686;28;20299;-51
2023/04/05 09:54:04;;;;;;;1991.13;999.90;;;7.60;99.90;;;;;;5066088;28;20220;-51
2023/04/05 09:56:36;;;;;;;1999.90;999.90;;;7.70;99.90;;;;;;5066096;28;20262;-51
2023/04/05 09:59:09;;;;;;;1999.90;999.90;;;7.90;99.90;;;;;;5062517;28;20308;-52
2023/04/05 10:01:38;;;;;;;1770.50;997.80;;;8.10;99.90;;;;;;5062361;28;20212;-52
2023/04/05 10:04:08;;;;;;;1401.13;977.40;;;8.10;99.90;;;;;;5066236;28;20201;-52
2023/04/05 10:06:37;;;;;;;1999.90;999.90;;;8.10;99.90;;;;;;5065165;28;20273;-51
2023/04/05 10:09:07;;;;;;;1999.90;999.90;;;8.30;99.90;;;;;;5066416;28;20250;-52
2023/04/05 10:11:38;;;;;;;950.67;808.23;;;8.50;99.90;;;;;;5065264;28;20745;-51
2023/04/05 10:14:07;;;;;;;1678.00;970.87;;;8.30;99.90;;;;;;5061066;28;20220;-52
2023/04/05 10:16:41;;;;;;;1999.90;999.90;;;8.40;99.90;;;;;;5069554;28;20205;-51
2023/04/05 10:19:16;;;;;;;1234.77;840.37;;;8.70;99.90;;;;;;5078973;28;20291;-51
2023/04/05 10:21:46;;;;;;;1999.90;999.90;;;8.80;99.90;;;;;;5072931;28;20463;-50
2023/04/05 10:24:23;;;;;;;1999.90;999.90;;;8.80;99.90;;;;;;5075534;28;20197;-51
2023/04/05 10:27:04;;;;;;;1963.87;999.90;;;9.00;99.90;;;;;;5076901;28;20252;-51
2023/04/05 10:29:38;;;;;;;1584.73;978.73;;;9.10;99.90;;;;;;5078464;28;20285;-51
2023/04/05 10:32:13;;;;;;;1848.00;999.90;;;9.00;99.90;;;;;;5080198;28;20205;-51
2023/04/05 10:34:48;;;;;;;1999.90;999.90;;;9.10;99.90;;;;;;5071210;28;20224;-52
2023/04/05 10:37:26;;;;;;;1999.90;999.90;;;9.40;99.90;;;;;;5073157;28;20221;-52
2023/04/05 10:39:59;;;;;;;1822.60;999.90;;;9.40;99.90;;;;;;5070403;28;20209;-51
2023/04/05 10:42:38;;;;;;;1192.17;952.43;;;9.30;99.90;;;;;;5068629;28;20928;-50
2023/04/05 10:45:10;;;;;;;1341.03;940.30;;;9.30;99.50;;;;;;5074847;28;20207;-52
2023/04/05 10:47:44;;;;;;;1420.77;966.17;;;9.20;99.70;;;;;;5084896;28;20232;-51
2023/04/05 10:50:20;;;;;;;1579.37;985.27;;;9.30;99.70;;;;;;5064665;28;20217;-52
2023/04/05 10:52:48;;;;;;;1524.90;998.73;;;9.40;99.90;;;;;;5069774;28;20219;-52
2023/04/05 10:55:17;;;;;;;1999.90;999.90;;;9.40;99.90;;;;;;5081990;28;20225;-51
2023/04/05 10:57:48;;;;;;;1999.90;999.90;;;9.40;99.90;;;;;;5073073;28;20286;-51
2023/04/05 11:00:18;;;;;;;1999.90;999.90;;;9.30;99.60;;;;;;5077067;28;20209;-51
2023/04/05 11:02:49;;;;;;;1541.60;969.53;;;9.30;99.60;;;;;;5068715;28;20290;-51
2023/04/05 11:05:33;;;;;;;1548.53;975.83;;;9.40;99.90;;;;;;5071086;28;20197;-51
2023/04/05 11:08:05;;;;;;;1999.90;999.90;;;9.50;99.90;;;;;;5068784;28;20730;-51
2023/04/05 11:10:36;;;;;;;1866.63;999.90;;;9.70;99.90;;;;;;5070672;28;20720;-51
2023/04/05 11:13:12;;;;;;;1999.90;999.90;;;9.70;99.90;;;;;;5070683;28;20266;-52
2023/04/05 11:15:42;;;;;;;1436.13;982.77;;;9.60;97.80;;;;;;5070678;28;20281;-51
2023/04/05 11:18:11;;;;;;;1999.90;999.90;;;9.60;99.50;;;;;;5069611;28;20316;-50
2023/04/05 11:20:47;;;;;;;1926.67;999.90;;;9.80;99.90;;;;;;5067571;28;20219;-51
2023/04/05 11:23:17;;;;;;;1562.83;958.07;;;9.80;99.60;;;;;;5068427;28;20220;-51
2023/04/05 11:25:52;;;;;;;1352.70;981.40;;;9.70;98.80;;;;;;5070548;28;20209;-51
2023/04/05 11:28:28;;;;;;;1999.90;999.90;;;9.60;97.60;;;;;;5069975;28;20220;-52
2023/04/05 11:30:57;;;;;;;939.40;819.67;;;9.70;98.40;;;;;;5062955;28;20209;-51
2023/04/05 11:33:58;;;;;;;1412.57;999.90;;;9.70;98.10;;;;;;5069746;28;20212;-52
2023/04/05 11:36:32;;;;;;;1598.10;979.97;;;9.80;96.80;;;;;;5061855;28;20292;-51
2023/04/05 11:39:23;;;;;;;1999.90;999.90;;;9.90;98.20;;;;;;5069899;28;20204;-51
2023/04/05 11:41:55;;;;;;;1263.30;893.80;;;9.90;96.70;;;;;;5063157;28;20232;-52
2023/04/05 11:44:25;;;;;;;1999.90;999.90;;;9.90;98.60;;;;;;5069649;28;20201;-51
2023/04/05 11:46:54;;;;;;;1312.30;986.70;;;9.90;98.00;;;;;;5064370;28;20225;-51
2023/04/05 11:49:23;;;;;;;1917.07;999.90;;;9.80;97.10;;;;;;5069263;28;20204;-51
2023/04/05 11:51:52;;;;;;;1999.90;999.90;;;9.70;97.30;;;;;;5070415;28;20342;-51
2023/04/05 11:54:31;;;;;;;970.20;834.00;;;9.80;97.50;;;;;;5068739;28;20288;-51
2023/04/05 11:57:00;;;;;;;1191.13;916.23;;;9.80;95.80;;;;;;5069347;28;20221;-52
2023/04/05 11:59:32;;;;;;;1352.17;931.80;;;9.70;96.70;;;;;;5069139;28;20205;-51
2023/04/05 12:02:03;;;;;;;1992.63;999.90;;;9.70;97.40;;;;;;5069177;28;20213;-52
2023/04/05 12:04:31;;;;;;;1943.37;999.90;;;9.80;98.50;;;;;;5068957;28;20200;-50
2023/04/05 12:07:12;;;;;;;1982.13;999.90;;;10.00;98.70;;;;;;5069490;28;20244;-52
2023/04/05 12:10:00;;;;;;;1780.03;999.90;;;10.20;98.80;;;;;;5063032;28;20315;-52
2023/04/05 12:12:28;;;;;;;1999.90;999.90;;;10.20;98.40;;;;;;5068489;28;20330;-52
2023/04/05 12:15:01;;;;;;;1492.37;939.67;;;10.20;96.80;;;;;;5068876;28;20343;-51
2023/04/05 12:17:45;;;;;;;1999.90;999.90;;;10.00;94.90;;;;;;5068531;28;20731;-52
2023/04/05 12:20:16;;;;;;;1373.03;999.57;;;9.70;95.30;;;;;;5064110;28;20737;-52
2023/04/05 12:22:47;;;;;;;1999.90;997.93;;;9.80;95.50;;;;;;5068659;28;20243;-51